createdAt,value
2019-06-08T00:00:44.844Z,100750.09
2019-06-08T00:01:49.806Z,100757.46
2019-06-08T00:02:55.280Z,100755.47
2019-06-08T00:04:00.745Z,100754.97
2019-06-08T00:05:06.475Z,100757.84
2019-06-08T00:06:12.611Z,100746.42
2019-06-08T00:07:18.889Z,100749.95
2019-06-08T00:08:24.121Z,100757.16
2019-06-08T00:09:29.604Z,100749.61
2019-06-08T00:10:34.539Z,100749.61
2019-06-08T00:11:40.355Z,100746.42
2019-06-08T00:12:45.363Z,100747.61
2019-06-08T00:13:51.231Z,100750.80
2019-06-08T00:14:56.129Z,100745.77
2019-06-08T00:16:01.639Z,100752.98
2019-06-08T00:17:06.594Z,100750.14
2019-06-08T00:18:13.207Z,100753.82
2019-06-08T00:19:19.205Z,100755.16
2019-06-08T00:20:25.204Z,100749.30
2019-06-08T00:21:30.146Z,100751.14
2019-06-08T00:22:36.146Z,100750.64
2019-06-08T00:23:41.876Z,100747.77
2019-06-08T00:24:47.355Z,100749.45
2019-06-08T00:25:52.294Z,100751.29
2019-06-08T00:26:57.772Z,100755.16
2019-06-08T00:28:02.713Z,100758.34
2019-06-08T00:29:08.242Z,100758.16
2019-06-08T00:30:13.604Z,100760.84
2019-06-08T00:31:20.094Z,100753.13
2019-06-08T00:32:25.391Z,100761.19
2019-06-08T00:33:30.900Z,100766.40
2019-06-08T00:34:35.821Z,100764.52
2019-06-08T00:35:41.320Z,100763.87
2019-06-08T00:36:46.506Z,100767.21
2019-06-08T00:37:52.005Z,100765.37
2019-06-08T00:38:57.030Z,100764.52
2019-06-08T00:40:02.536Z,100767.21
2019-06-08T00:41:07.469Z,100764.52
2019-06-08T00:42:13.217Z,100768.24
2019-06-08T00:43:19.153Z,100768.55
2019-06-08T00:44:25.593Z,100772.58
2019-06-08T00:45:30.672Z,100777.95
2019-06-08T00:46:36.366Z,100779.30
2019-06-08T00:47:47.627Z,100780.33
2019-06-08T00:48:48.592Z,100777.95
2019-06-08T00:49:53.507Z,100778.48
2019-06-08T00:50:59.068Z,100781.67
2019-06-08T00:52:04.226Z,100777.95
2019-06-08T00:53:09.812Z,100779.64
2019-06-08T00:54:14.792Z,100777.14
2019-06-08T00:55:21.796Z,100775.80
2019-06-08T00:56:27.210Z,100770.58
2019-06-08T00:57:32.789Z,100780.98
2019-06-08T00:58:37.760Z,100778.30
2019-06-08T00:59:43.273Z,100786.36
2019-06-08T01:00:49.193Z,100790.23
2019-06-08T01:01:54.737Z,100794.41
2019-06-08T01:02:59.726Z,100786.70
2019-06-08T01:04:05.380Z,100785.52
2019-06-08T01:05:10.828Z,100786.36
2019-06-08T01:06:16.602Z,100796.41
2019-06-08T01:07:22.138Z,100801.78
2019-06-08T01:08:27.562Z,100797.75
2019-06-08T01:09:32.482Z,100792.91
2019-06-08T01:10:38.223Z,100799.09
2019-06-08T01:11:43.405Z,100806.66
2019-06-08T01:12:48.923Z,100810.18
2019-06-08T01:13:54.139Z,100799.09
2019-06-08T01:14:59.656Z,100805.81
2019-06-08T01:16:04.537Z,100808.50
2019-06-08T01:17:10.129Z,100812.52
2019-06-08T01:18:15.056Z,100820.58
2019-06-08T01:19:21.107Z,100819.77
2019-06-08T01:20:27.494Z,100816.74
2019-06-08T01:21:33.112Z,100818.77
2019-06-08T01:22:38.257Z,100820.27
2019-06-08T01:23:43.866Z,100823.45
2019-06-08T01:24:48.801Z,100826.64
2019-06-08T01:25:54.388Z,100830.33
2019-06-08T01:26:59.407Z,100819.77
2019-06-08T01:28:05.208Z,100821.95
2019-06-08T01:29:10.214Z,100821.95
2019-06-08T01:30:17.590Z,100832.36
2019-06-08T01:31:22.586Z,100837.23
2019-06-08T01:32:28.638Z,100833.86
2019-06-08T01:33:33.587Z,100830.02
2019-06-08T01:34:39.339Z,100841.75
2019-06-08T01:35:44.372Z,100830.36
2019-06-08T01:36:49.867Z,100827.67
2019-06-08T01:37:55.391Z,100829.52
2019-06-08T01:39:00.887Z,100838.06
2019-06-08T01:40:06.871Z,100839.41
2019-06-08T01:41:12.360Z,100837.72
2019-06-08T01:42:17.250Z,100852.18
2019-06-08T01:43:23.698Z,100845.47
2019-06-08T01:44:30.060Z,100851.34
2019-06-08T01:45:35.783Z,100844.13
2019-06-08T01:46:40.943Z,100848.30
2019-06-08T01:47:46.891Z,100844.78
2019-06-08T01:48:51.988Z,100845.81
2019-06-08T01:49:57.678Z,100828.01
2019-06-08T01:51:02.625Z,100836.41
2019-06-08T01:52:08.319Z,100833.37
2019-06-08T01:53:13.240Z,100837.56
2019-06-08T01:54:18.721Z,100845.80
2019-06-08T01:55:25.052Z,100836.75
2019-06-08T01:56:31.240Z,100830.03
2019-06-08T01:57:36.184Z,100842.77
2019-06-08T01:58:41.689Z,100841.11
2019-06-08T01:59:46.667Z,100836.73
2019-06-08T02:00:52.204Z,100842.77
2019-06-08T02:01:57.386Z,100849.48
2019-06-08T02:03:03.185Z,100860.56
2019-06-08T02:04:08.159Z,100839.08
2019-06-08T02:05:13.823Z,100841.77
2019-06-08T02:06:18.801Z,100844.45
2019-06-08T02:07:24.760Z,100846.14
2019-06-08T02:08:30.663Z,100841.62
2019-06-08T02:09:36.487Z,100844.80
2019-06-08T02:10:41.489Z,100855.54
2019-06-08T02:11:46.973Z,100848.48
2019-06-08T02:12:51.875Z,100851.66
2019-06-08T02:13:57.450Z,100855.20
2019-06-08T02:15:02.413Z,100860.22
2019-06-08T02:16:08.045Z,100860.56
2019-06-08T02:17:13.551Z,100866.78
2019-06-08T02:18:35.136Z,100855.54
2019-06-08T02:19:26.582Z,100874.33
2019-06-08T02:20:33.183Z,100884.58
2019-06-08T02:21:39.073Z,100874.68
2019-06-08T02:22:44.829Z,100868.47
2019-06-08T02:23:49.848Z,100873.65
2019-06-08T02:24:55.365Z,100878.70
2019-06-08T02:26:00.393Z,100876.34
2019-06-08T02:27:06.047Z,100888.77
2019-06-08T02:28:10.926Z,100878.17
2019-06-08T02:29:16.676Z,100873.65
2019-06-08T02:30:21.976Z,100888.26
2019-06-08T02:31:27.963Z,100890.09
2019-06-08T02:32:34.628Z,100881.38
2019-06-08T02:33:40.478Z,100886.59
2019-06-08T02:34:45.438Z,100887.23
2019-06-08T02:35:51.009Z,100891.45
2019-06-08T02:36:56.171Z,100890.27
2019-06-08T02:38:01.918Z,100888.76
2019-06-08T02:39:07.642Z,100889.56
2019-06-08T02:40:13.756Z,100892.73
2019-06-08T02:41:18.770Z,100896.42
2019-06-08T02:42:24.292Z,100896.42
2019-06-08T02:43:30.881Z,100903.81
2019-06-08T02:44:36.452Z,100895.92
2019-06-08T02:45:41.467Z,100901.29
2019-06-08T02:46:47.015Z,100897.45
2019-06-08T02:47:51.905Z,100896.11
2019-06-08T02:49:04.025Z,100900.78
2019-06-08T02:50:04.553Z,100898.78
2019-06-08T02:51:10.129Z,100895.25
2019-06-08T02:52:15.430Z,100897.44
2019-06-08T02:53:21.092Z,100897.59
2019-06-08T02:54:26.157Z,100906.17
2019-06-08T02:55:33.073Z,100902.79
2019-06-08T02:56:41.233Z,100911.84
2019-06-08T02:57:48.370Z,100913.02
2019-06-08T02:58:54.985Z,100911.85
2019-06-08T03:00:02.238Z,100914.85
2019-06-08T03:01:07.762Z,100914.19
2019-06-08T03:02:15.592Z,100916.88
2019-06-08T03:03:20.650Z,100910.84
2019-06-08T03:04:29.803Z,100915.86
2019-06-08T03:05:38.105Z,100914.87
2019-06-08T03:06:46.367Z,100918.71
2019-06-08T03:07:53.388Z,100924.08
2019-06-08T03:08:59.000Z,100922.24
2019-06-08T03:10:04.941Z,100923.23
2019-06-08T03:11:10.867Z,100920.90
2019-06-08T03:12:17.633Z,100929.45
2019-06-08T03:13:26.341Z,100926.61
2019-06-08T03:14:33.358Z,100932.83
2019-06-08T03:15:41.486Z,100934.98
2019-06-08T03:16:46.044Z,100934.66
2019-06-08T03:17:51.531Z,100940.18
2019-06-08T03:18:56.454Z,100940.18
2019-06-08T03:20:02.015Z,100936.16
2019-06-08T03:21:07.168Z,100935.66
2019-06-08T03:22:13.036Z,100941.69
2019-06-08T03:23:18.010Z,100944.22
2019-06-08T03:24:23.600Z,100944.72
2019-06-08T03:25:28.750Z,100946.06
2019-06-08T03:26:34.396Z,100943.03
2019-06-08T03:27:40.805Z,100948.75
2019-06-08T03:28:46.766Z,100961.17
2019-06-08T03:29:51.769Z,100962.16
2019-06-08T03:30:58.015Z,100975.23
2019-06-08T03:32:12.537Z,100965.17
2019-06-08T03:33:17.461Z,100959.14
2019-06-08T03:34:22.379Z,100965.01
2019-06-08T03:35:28.209Z,100948.06
2019-06-08T03:36:35.961Z,100949.05
2019-06-08T03:37:42.164Z,100967.69
2019-06-08T03:38:46.947Z,100968.19
2019-06-08T03:39:52.486Z,100967.00
2019-06-08T03:40:57.576Z,100962.97
2019-06-08T03:42:03.441Z,100971.20
2019-06-08T03:43:08.416Z,100971.20
2019-06-08T03:44:13.914Z,100978.55
2019-06-08T03:45:19.239Z,100976.72
2019-06-08T03:46:24.717Z,100973.19
2019-06-08T03:47:29.918Z,100966.48
2019-06-08T03:48:37.198Z,100970.50
2019-06-08T03:49:52.218Z,100973.37
2019-06-08T03:50:49.749Z,100964.82
2019-06-08T03:51:54.697Z,100985.94
2019-06-08T03:53:00.433Z,100979.91
2019-06-08T03:54:05.526Z,100977.54
2019-06-08T03:55:11.597Z,100976.52
2019-06-08T03:56:16.918Z,100974.86
2019-06-08T03:57:22.655Z,100966.13
2019-06-08T03:58:27.605Z,100971.66
2019-06-08T03:59:33.075Z,100977.53
2019-06-08T04:00:38.329Z,100981.55
2019-06-08T04:01:43.934Z,100988.08
2019-06-08T04:02:50.465Z,100981.05
2019-06-08T04:03:59.914Z,100985.92
2019-06-08T04:05:03.089Z,100986.24
2019-06-08T04:06:08.619Z,100988.42
2019-06-08T04:07:13.818Z,100985.59
2019-06-08T04:08:19.312Z,100996.33
2019-06-08T04:09:24.457Z,100993.30
2019-06-08T04:10:30.278Z,100985.59
2019-06-08T04:11:35.588Z,100987.93
2019-06-08T04:12:41.940Z,100990.27
2019-06-08T04:13:47.388Z,100975.19
2019-06-08T04:14:52.973Z,100985.08
2019-06-08T04:15:58.237Z,100985.23
2019-06-08T04:17:03.915Z,101002.34
2019-06-08T04:18:08.824Z,100992.26
2019-06-08T04:19:14.284Z,100989.23
2019-06-08T04:20:19.330Z,100994.27
2019-06-08T04:21:25.167Z,100998.94
2019-06-08T04:22:30.350Z,100997.59
2019-06-08T04:23:35.943Z,100995.27
2019-06-08T04:24:42.483Z,101002.47
2019-06-08T04:25:48.667Z,101007.52
2019-06-08T04:26:53.625Z,101006.32
2019-06-08T04:27:59.121Z,101011.19
2019-06-08T04:29:04.141Z,101024.10
2019-06-08T04:30:11.561Z,101012.87
2019-06-08T04:31:16.674Z,101011.68
2019-06-08T04:32:22.295Z,101015.36
2019-06-08T04:33:27.353Z,101023.41
2019-06-08T04:34:32.846Z,101022.06
2019-06-08T04:35:39.743Z,101015.85
2019-06-08T04:36:46.387Z,101021.22
2019-06-08T04:37:53.990Z,101027.92
2019-06-08T04:38:59.518Z,101020.72
2019-06-08T04:40:05.782Z,101023.75
2019-06-08T04:41:11.281Z,101024.74
2019-06-08T04:42:16.438Z,101035.33
2019-06-08T04:43:21.931Z,101035.82
2019-06-08T04:44:27.085Z,101030.46
2019-06-08T04:45:32.900Z,101040.20
2019-06-08T04:46:38.305Z,101043.37
2019-06-08T04:47:46.150Z,101043.20
2019-06-08T04:48:50.483Z,101042.20
2019-06-08T04:49:56.308Z,101040.86
2019-06-08T04:51:01.458Z,101047.42
2019-06-08T04:52:07.026Z,101054.95
2019-06-08T04:53:12.032Z,101048.59
2019-06-08T04:54:17.525Z,101039.38
2019-06-08T04:55:22.559Z,101050.25
2019-06-08T04:56:28.116Z,101035.67
2019-06-08T04:57:33.039Z,101042.39
2019-06-08T04:58:39.902Z,101042.03
2019-06-08T04:59:46.094Z,101040.20
2019-06-08T05:00:52.456Z,101044.22
2019-06-08T05:01:57.616Z,101042.88
2019-06-08T05:03:03.290Z,101040.52
2019-06-08T05:04:08.161Z,101046.23
2019-06-08T05:05:14.176Z,101047.22
2019-06-08T05:06:19.395Z,101052.09
2019-06-08T05:07:24.919Z,101043.20
2019-06-08T05:08:29.885Z,101061.66
2019-06-08T05:09:35.404Z,101054.95
2019-06-08T05:10:41.241Z,101058.13
2019-06-08T05:11:47.470Z,101064.83
2019-06-08T05:12:52.588Z,101058.62
2019-06-08T05:13:58.099Z,101071.69
2019-06-08T05:15:03.188Z,101067.34
2019-06-08T05:16:09.253Z,101069.67
2019-06-08T05:17:14.185Z,101072.67
2019-06-08T05:18:19.785Z,101070.98
2019-06-08T05:19:24.759Z,101070.98
2019-06-08T05:20:38.964Z,101075.85
2019-06-08T05:21:37.063Z,101082.41
2019-06-08T05:22:43.617Z,101080.72
2019-06-08T05:23:57.982Z,101087.78
2019-06-08T05:24:56.453Z,101072.50
2019-06-08T05:26:01.399Z,101087.78
2019-06-08T05:27:07.049Z,101079.38
2019-06-08T05:28:12.026Z,101089.41
2019-06-08T05:29:17.784Z,101087.04
2019-06-08T05:30:23.224Z,101083.55
2019-06-08T05:31:29.075Z,101087.04
2019-06-08T05:32:34.068Z,101084.36
2019-06-08T05:33:39.596Z,101087.04
2019-06-08T05:34:45.436Z,101091.06
2019-06-08T05:35:51.248Z,101091.42
2019-06-08T05:36:56.302Z,101089.58
2019-06-08T05:38:02.385Z,101092.61
2019-06-08T05:39:07.608Z,101089.09
2019-06-08T05:40:13.419Z,101090.42
2019-06-08T05:41:18.760Z,101086.90
2019-06-08T05:42:24.385Z,101088.37
2019-06-08T05:43:29.685Z,101093.25
2019-06-08T05:44:35.244Z,101098.47
2019-06-08T05:45:41.452Z,101093.11
2019-06-08T05:46:47.834Z,101095.79
2019-06-08T05:47:52.924Z,101088.06
2019-06-08T05:48:58.410Z,101092.09
2019-06-08T05:50:04.061Z,101103.48
2019-06-08T05:51:11.489Z,101099.46
2019-06-08T05:52:16.909Z,101099.95
2019-06-08T05:53:22.570Z,101101.30
2019-06-08T05:54:27.545Z,101101.79
2019-06-08T05:55:33.429Z,101107.16
2019-06-08T05:56:39.729Z,101105.81
2019-06-08T05:57:46.253Z,101115.55
2019-06-08T05:58:51.529Z,101103.13
2019-06-08T05:59:57.397Z,101114.39
2019-06-08T06:01:02.569Z,101113.05
2019-06-08T06:02:08.589Z,101113.19
2019-06-08T06:03:13.608Z,101116.02
2019-06-08T06:04:19.342Z,101111.31
2019-06-08T06:05:24.485Z,101113.33
2019-06-08T06:06:30.130Z,101124.55
2019-06-08T06:07:35.206Z,101120.84
2019-06-08T06:08:40.890Z,101120.84
2019-06-08T06:09:46.956Z,101125.50
2019-06-08T06:10:52.726Z,101130.36
2019-06-08T06:11:57.672Z,101129.87
2019-06-08T06:13:03.678Z,101123.84
2019-06-08T06:14:08.942Z,101133.58
2019-06-08T06:15:14.575Z,101137.77
2019-06-08T06:16:19.574Z,101135.91
2019-06-08T06:17:25.164Z,101135.23
2019-06-08T06:18:30.149Z,101133.22
2019-06-08T06:19:35.633Z,101134.25
2019-06-08T06:20:41.026Z,101129.52
2019-06-08T06:21:47.098Z,101141.59
2019-06-08T06:22:52.724Z,101144.12
2019-06-08T06:23:58.425Z,101140.77
2019-06-08T06:25:03.598Z,101141.27
2019-06-08T06:26:09.074Z,101144.66
2019-06-08T06:27:13.970Z,101139.64
2019-06-08T06:28:19.724Z,101145.33
2019-06-08T06:29:25.338Z,101146.67
2019-06-08T06:30:31.030Z,101149.84
2019-06-08T06:31:36.259Z,101155.07
2019-06-08T06:32:41.994Z,101155.07
2019-06-08T06:33:47.971Z,101147.70
2019-06-08T06:34:53.936Z,101145.37
2019-06-08T06:35:59.065Z,101148.90
2019-06-08T06:37:04.738Z,101159.45
2019-06-08T06:38:10.147Z,101153.73
2019-06-08T06:39:15.943Z,101161.91
2019-06-08T06:40:21.010Z,101158.73
2019-06-08T06:41:26.889Z,101156.91
2019-06-08T06:42:31.849Z,101161.77
2019-06-08T06:43:37.845Z,101167.49
2019-06-08T06:44:45.692Z,101170.17
2019-06-08T06:45:50.202Z,101170.00
2019-06-08T06:46:55.148Z,101164.14
2019-06-08T06:48:00.665Z,101173.21
2019-06-08T06:49:05.831Z,101167.53
2019-06-08T06:50:11.916Z,101173.61
2019-06-08T06:51:26.272Z,101178.70
2019-06-08T06:52:25.074Z,101177.57
2019-06-08T06:53:29.976Z,101185.16
2019-06-08T06:54:35.495Z,101174.50
2019-06-08T06:55:40.385Z,101178.06
2019-06-08T06:56:47.055Z,101174.41
2019-06-08T06:57:53.590Z,101176.98
2019-06-08T06:58:59.406Z,101190.79
2019-06-08T07:00:05.512Z,101180.58
2019-06-08T07:01:11.074Z,101179.90
2019-06-08T07:02:16.860Z,101182.12
2019-06-08T07:03:22.701Z,101186.48
2019-06-08T07:04:27.656Z,101192.87
2019-06-08T07:05:33.503Z,101192.20
2019-06-08T07:06:38.416Z,101199.77
2019-06-08T07:07:44.296Z,101198.09
2019-06-08T07:08:50.360Z,101207.70
2019-06-08T07:09:55.915Z,101202.33
2019-06-08T07:11:01.078Z,101203.34
2019-06-08T07:12:06.960Z,101194.64
2019-06-08T07:13:11.893Z,101210.93
2019-06-08T07:14:17.435Z,101210.93
2019-06-08T07:15:28.827Z,101210.78
2019-06-08T07:16:34.638Z,101213.64
2019-06-08T07:17:39.562Z,101219.86
2019-06-08T07:18:46.143Z,101208.44
2019-06-08T07:19:52.561Z,101225.23
2019-06-08T07:20:58.667Z,101215.84
2019-06-08T07:22:03.713Z,101220.89
2019-06-08T07:23:09.326Z,101219.24
2019-06-08T07:24:14.343Z,101212.89
2019-06-08T07:25:19.943Z,101234.73
2019-06-08T07:26:25.795Z,101221.64
2019-06-08T07:27:31.287Z,101227.53
2019-06-08T07:28:36.451Z,101221.98
2019-06-08T07:29:41.935Z,101227.02
2019-06-08T07:30:47.801Z,101221.81
2019-06-08T07:31:55.343Z,101226.39
2019-06-08T07:33:00.385Z,101235.47
2019-06-08T07:34:06.019Z,101237.52
2019-06-08T07:35:11.168Z,101233.14
2019-06-08T07:36:17.139Z,101230.78
2019-06-08T07:37:22.221Z,101237.15
2019-06-08T07:38:28.106Z,101243.85
2019-06-08T07:39:33.130Z,101237.78
2019-06-08T07:40:38.780Z,101236.44
2019-06-08T07:41:43.861Z,101239.97
2019-06-08T07:42:51.008Z,101231.75
2019-06-08T07:43:56.785Z,101243.17
2019-06-08T07:45:02.586Z,101245.22
2019-06-08T07:46:07.803Z,101251.29
2019-06-08T07:47:13.629Z,101257.66
2019-06-08T07:48:18.818Z,101251.23
2019-06-08T07:49:24.331Z,101256.59
2019-06-08T07:50:29.288Z,101258.29
2019-06-08T07:51:35.115Z,101260.80
2019-06-08T07:52:40.106Z,101258.45
2019-06-08T07:53:45.672Z,101266.38
2019-06-08T07:54:50.957Z,101257.52
2019-06-08T07:55:56.559Z,101264.08
2019-06-08T07:57:01.985Z,101268.44
2019-06-08T07:58:08.144Z,101263.78
2019-06-08T07:59:13.866Z,101259.41
2019-06-08T08:00:19.853Z,101264.80
2019-06-08T08:01:35.855Z,101262.59
2019-06-08T08:02:32.082Z,101271.31
2019-06-08T08:03:37.313Z,101249.80
2019-06-08T08:04:42.841Z,101266.13
2019-06-08T08:05:48.217Z,101270.16
2019-06-08T08:06:54.586Z,101265.13
2019-06-08T08:07:59.610Z,101267.31
2019-06-08T08:09:06.628Z,101269.16
2019-06-08T08:10:12.776Z,101273.19
2019-06-08T08:11:18.368Z,101260.73
2019-06-08T08:12:23.278Z,101265.80
2019-06-08T08:13:28.883Z,101268.30
2019-06-08T08:14:33.833Z,101277.56
2019-06-08T08:15:39.521Z,101287.48
2019-06-08T08:16:44.575Z,101280.91
2019-06-08T08:17:52.282Z,101283.94
2019-06-08T08:18:57.638Z,101281.42
2019-06-08T08:20:03.362Z,101282.42
2019-06-08T08:21:21.191Z,101284.09
2019-06-08T08:22:23.153Z,101304.27
2019-06-08T08:23:22.819Z,101289.64
2019-06-08T08:24:28.323Z,101280.09
2019-06-08T08:25:33.675Z,101296.90
2019-06-08T08:26:39.435Z,101289.68
2019-06-08T08:27:44.360Z,101298.74
2019-06-08T08:28:52.707Z,101291.34
2019-06-08T08:29:59.945Z,101285.66
2019-06-08T08:31:03.818Z,101291.36
2019-06-08T08:32:10.029Z,101292.38
2019-06-08T08:33:18.188Z,101287.67
2019-06-08T08:34:22.197Z,101302.81
2019-06-08T08:35:28.069Z,101295.75
2019-06-08T08:36:33.464Z,101294.92
2019-06-08T08:37:39.092Z,101302.15
2019-06-08T08:38:44.516Z,101303.00
2019-06-08T08:39:50.732Z,101277.60
2019-06-08T08:41:06.271Z,101305.52
2019-06-08T08:42:05.356Z,101300.78
2019-06-08T08:43:13.389Z,101307.20
2019-06-08T08:44:20.793Z,101308.55
2019-06-08T08:45:29.829Z,101301.98
2019-06-08T08:46:38.479Z,101309.90
2019-06-08T08:47:43.140Z,101321.67
2019-06-08T08:48:50.920Z,101287.36
2019-06-08T08:49:56.777Z,101303.67
2019-06-08T08:51:03.652Z,101305.70
2019-06-08T08:52:11.616Z,101306.20
2019-06-08T08:53:18.035Z,101316.64
2019-06-08T08:54:22.850Z,101309.06
2019-06-08T08:55:28.392Z,101308.91
2019-06-08T08:56:33.419Z,101317.80
2019-06-08T08:57:41.547Z,101322.49
2019-06-08T08:58:47.782Z,101314.44
2019-06-08T08:59:55.070Z,101309.88
2019-06-08T09:01:03.505Z,101319.62
2019-06-08T09:02:11.236Z,101324.00
2019-06-08T09:03:25.981Z,101311.55
2019-06-08T09:04:24.377Z,101312.41
2019-06-08T09:05:29.404Z,101319.28
2019-06-08T09:06:34.962Z,101322.48
2019-06-08T09:07:39.879Z,101322.82
2019-06-08T09:08:48.392Z,101334.77
2019-06-08T09:09:56.164Z,101336.44
2019-06-08T09:11:03.739Z,101321.13
2019-06-08T09:12:08.973Z,101337.74
2019-06-08T09:13:14.439Z,101334.39
2019-06-08T09:14:19.417Z,101337.41
2019-06-08T09:15:25.007Z,101342.09
2019-06-08T09:16:29.976Z,101341.91
2019-06-08T09:17:35.709Z,101354.02
2019-06-08T09:18:40.774Z,101358.90
2019-06-08T09:19:48.105Z,101353.20
2019-06-08T09:20:53.987Z,101357.75
2019-06-08T09:22:02.074Z,101353.20
2019-06-08T09:23:14.618Z,101353.22
2019-06-08T09:24:13.585Z,101351.23
2019-06-08T09:25:18.834Z,101350.91
2019-06-08T09:26:24.492Z,101354.95
2019-06-08T09:27:29.881Z,101356.64
2019-06-08T09:28:35.543Z,101360.03
2019-06-08T09:29:40.587Z,101365.44
2019-06-08T09:30:48.255Z,101366.78
2019-06-08T09:31:53.937Z,101368.69
2019-06-08T09:33:01.967Z,101362.81
2019-06-08T09:34:12.208Z,101370.55
2019-06-08T09:35:14.333Z,101375.10
2019-06-08T09:36:19.404Z,101378.11
2019-06-08T09:37:24.982Z,101374.27
2019-06-08T09:38:30.189Z,101369.54
2019-06-08T09:39:38.322Z,101378.81
2019-06-08T09:40:42.557Z,101382.01
2019-06-08T09:41:48.127Z,101391.09
2019-06-08T09:43:01.762Z,101381.66
2019-06-08T09:44:05.771Z,101383.00
2019-06-08T09:45:11.331Z,101389.91
2019-06-08T09:46:17.891Z,101396.80
2019-06-08T09:47:23.083Z,101387.72
2019-06-08T09:48:29.093Z,101384.17
2019-06-08T09:49:34.437Z,101389.06
2019-06-08T09:50:40.183Z,101384.34
2019-06-08T09:51:45.147Z,101392.93
2019-06-08T09:53:06.591Z,101393.94
2019-06-08T09:54:02.159Z,101399.84
2019-06-08T09:55:06.915Z,101387.20
2019-06-08T09:56:11.941Z,101402.87
2019-06-08T09:57:18.876Z,101397.84
2019-06-08T09:58:24.112Z,101395.47
2019-06-08T09:59:29.617Z,101397.67
2019-06-08T10:00:37.686Z,101402.53
2019-06-08T10:01:42.291Z,101404.58
2019-06-08T10:02:47.923Z,101391.77
2019-06-08T10:03:54.327Z,101405.22
2019-06-08T10:05:02.380Z,101407.41
2019-06-08T10:06:09.338Z,101402.52
2019-06-08T10:07:13.267Z,101414.50
2019-06-08T10:08:20.659Z,101408.42
2019-06-08T10:09:28.257Z,101411.28
2019-06-08T10:10:32.830Z,101408.93
2019-06-08T10:11:38.259Z,101412.13
2019-06-08T10:12:44.072Z,101418.72
2019-06-08T10:13:49.576Z,101419.53
2019-06-08T10:14:56.653Z,101424.23
2019-06-08T10:16:05.350Z,101426.43
2019-06-08T10:17:09.311Z,101427.78
2019-06-08T10:18:14.369Z,101426.78
2019-06-08T10:19:20.134Z,101424.42
2019-06-08T10:20:25.248Z,101424.42
2019-06-08T10:21:31.016Z,101424.73
2019-06-08T10:22:37.302Z,101425.89
2019-06-08T10:23:43.407Z,101426.19
2019-06-08T10:24:49.163Z,101433.09
2019-06-08T10:25:58.273Z,101426.34
2019-06-08T10:27:03.448Z,101425.33
2019-06-08T10:28:14.067Z,101432.23
2019-06-08T10:29:18.264Z,101425.98
2019-06-08T10:30:23.640Z,101425.98
2019-06-08T10:31:39.102Z,101431.04
2019-06-08T10:32:38.259Z,101431.73
2019-06-08T10:33:43.358Z,101423.84
2019-06-08T10:34:49.138Z,101443.58
2019-06-08T10:35:55.633Z,101432.13
2019-06-08T10:37:06.206Z,101424.23
2019-06-08T10:38:11.829Z,101436.03
2019-06-08T10:39:16.316Z,101427.09
2019-06-08T10:40:22.924Z,101440.26
2019-06-08T10:41:28.947Z,101447.00
2019-06-08T10:42:34.393Z,101429.28
2019-06-08T10:43:40.246Z,101434.52
2019-06-08T10:44:45.425Z,101442.27
2019-06-08T10:45:51.274Z,101443.08
2019-06-08T10:46:58.970Z,101445.61
2019-06-08T10:48:04.798Z,101434.13
2019-06-08T10:49:14.438Z,101443.37
2019-06-08T10:50:19.375Z,101437.48
2019-06-08T10:51:24.656Z,101446.42
2019-06-08T10:52:30.848Z,101450.31
2019-06-08T10:53:46.388Z,101427.53
2019-06-08T10:54:43.538Z,101441.52
2019-06-08T10:55:50.108Z,101438.47
2019-06-08T10:56:59.661Z,101444.17
2019-06-08T10:58:04.389Z,101446.72
2019-06-08T10:59:12.246Z,101445.02
2019-06-08T11:00:24.160Z,101452.61
2019-06-08T11:01:29.228Z,101450.56
2019-06-08T11:02:34.595Z,101442.47
2019-06-08T11:03:40.222Z,101444.17
2019-06-08T11:04:45.400Z,101443.52
2019-06-08T11:05:51.472Z,101455.31
2019-06-08T11:07:01.070Z,101452.11
2019-06-08T11:08:04.500Z,101448.71
2019-06-08T11:09:13.289Z,101455.95
2019-06-08T11:10:19.224Z,101457.95
2019-06-08T11:11:24.233Z,101452.23
2019-06-08T11:12:30.292Z,101453.92
2019-06-08T11:13:35.458Z,101467.42
2019-06-08T11:14:41.008Z,101458.98
2019-06-08T11:15:48.082Z,101461.84
2019-06-08T11:16:53.627Z,101458.14
2019-06-08T11:18:02.281Z,101459.30
2019-06-08T11:19:07.619Z,101461.69
2019-06-08T11:20:13.697Z,101468.95
2019-06-08T11:21:19.423Z,101452.25
2019-06-08T11:22:24.345Z,101467.45
2019-06-08T11:23:30.287Z,101475.91
2019-06-08T11:24:35.179Z,101475.94
2019-06-08T11:25:40.704Z,101479.98
2019-06-08T11:26:47.857Z,101472.75
2019-06-08T11:27:52.821Z,101483.38
2019-06-08T11:28:58.621Z,101479.99
2019-06-08T11:30:11.460Z,101490.13
2019-06-08T11:31:15.706Z,101485.23
2019-06-08T11:32:18.913Z,101492.81
2019-06-08T11:33:24.264Z,101478.17
2019-06-08T11:34:30.325Z,101488.95
2019-06-08T11:35:38.390Z,101477.50
2019-06-08T11:36:43.640Z,101497.22
2019-06-08T11:37:48.938Z,101493.83
2019-06-08T11:38:54.456Z,101487.08
2019-06-08T11:39:59.839Z,101498.20
2019-06-08T11:41:09.391Z,101500.23
2019-06-08T11:42:13.133Z,101500.90
2019-06-08T11:43:18.781Z,101503.45
2019-06-08T11:44:23.986Z,101507.30
2019-06-08T11:45:29.456Z,101498.88
2019-06-08T11:46:34.531Z,101502.59
2019-06-08T11:47:40.095Z,101513.03
2019-06-08T11:48:45.009Z,101514.38
2019-06-08T11:49:50.584Z,101517.92
2019-06-08T11:50:58.364Z,101509.32
2019-06-08T11:52:04.527Z,101511.86
2019-06-08T11:53:12.647Z,101512.20
2019-06-08T11:54:32.853Z,101525.66
2019-06-08T11:55:23.588Z,101517.59
2019-06-08T11:56:29.951Z,101516.79
2019-06-08T11:57:37.306Z,101512.41
2019-06-08T11:58:44.117Z,101525.71
2019-06-08T11:59:50.325Z,101516.94
2019-06-08T12:01:01.220Z,101514.40
2019-06-08T12:02:05.691Z,101516.60
2019-06-08T12:03:12.023Z,101515.41
2019-06-08T12:04:18.545Z,101526.55
2019-06-08T12:05:23.999Z,101526.20
2019-06-08T12:06:29.188Z,101526.20
2019-06-08T12:07:34.798Z,101531.25
2019-06-08T12:08:39.740Z,101525.67
2019-06-08T12:09:45.491Z,101526.67
2019-06-08T12:10:50.499Z,101528.86
2019-06-08T12:11:58.058Z,101527.33
2019-06-08T12:13:02.749Z,101536.08
2019-06-08T12:14:10.801Z,101533.88
2019-06-08T12:15:20.736Z,101533.22
2019-06-08T12:16:22.645Z,101540.28
2019-06-08T12:17:27.928Z,101531.70
2019-06-08T12:18:33.533Z,101543.50
2019-06-08T12:19:38.789Z,101530.16
2019-06-08T12:20:44.789Z,101539.91
2019-06-08T12:21:49.983Z,101543.95
2019-06-08T12:22:55.500Z,101535.50
2019-06-08T12:24:00.795Z,101543.94
2019-06-08T12:25:06.589Z,101550.34
2019-06-08T12:26:12.259Z,101546.95
2019-06-08T12:27:29.146Z,101550.00
2019-06-08T12:28:24.559Z,101558.80
2019-06-08T12:29:30.431Z,101553.91
2019-06-08T12:30:35.475Z,101558.96
2019-06-08T12:31:41.039Z,101550.36